Time;durP1;ratioP1;P1;durP2;ratioP2;P2;SDS_P1;SDS_P2;PMS_P1;PMS_P2;Temp;Humidity;BMP_temperature;BMP_pressure;BME280_temperature;BME280_humidity;BME280_pressure;Samples;Min_cycle;Max_cycle;Signal;HPM_P1;HPM_P2
2021/11/09 00:00:35;;;;;;;29.27;9.75;;;5.60;93.80;;;;;;5055005;28;20456;-80
2021/11/09 00:03:06;;;;;;;32.05;9.95;;;5.50;93.80;;;;;;5055295;28;20123;-80
2021/11/09 00:05:32;;;;;;;24.02;8.75;;;5.50;93.70;;;;;;5055353;28;20052;-80
2021/11/09 00:08:00;;;;;;;26.60;8.50;;;5.50;93.70;;;;;;5053074;28;20048;-81
2021/11/09 00:10:30;;;;;;;40.42;11.18;;;5.50;93.70;;;;;;5053891;28;20033;-80
2021/11/09 00:13:03;;;;;;;26.75;10.60;;;5.50;93.70;;;;;;5034416;28;20033;-81
2021/11/09 00:15:30;;;;;;;33.88;9.77;;;5.50;93.70;;;;;;5017730;28;20032;-80
2021/11/09 00:17:58;;;;;;;40.72;10.52;;;5.50;93.70;;;;;;5049854;28;20032;-81
2021/11/09 00:20:28;;;;;;;21.75;8.52;;;5.40;93.70;;;;;;5054838;28;20035;-80
2021/11/09 00:22:55;;;;;;;29.63;9.30;;;5.40;93.80;;;;;;5052987;28;20108;-81
2021/11/09 00:25:22;;;;;;;21.48;9.63;;;5.40;93.80;;;;;;5053205;28;20120;-80
2021/11/09 00:27:48;;;;;;;29.90;9.70;;;5.40;93.80;;;;;;5054956;28;20029;-80
2021/11/09 00:30:15;;;;;;;25.13;9.23;;;5.40;93.80;;;;;;5036903;28;20064;-80
2021/11/09 00:32:45;;;;;;;27.15;9.60;;;5.40;93.80;;;;;;5054323;28;20037;-80
2021/11/09 00:35:12;;;;;;;32.35;9.32;;;5.40;93.90;;;;;;5052730;28;20025;-80
2021/11/09 00:37:39;;;;;;;31.08;10.88;;;5.40;93.90;;;;;;5054403;28;20098;-80
2021/11/09 00:40:07;;;;;;;29.45;9.82;;;5.40;93.90;;;;;;5054469;28;20020;-80
2021/11/09 00:42:33;;;;;;;25.85;9.55;;;5.40;93.90;;;;;;5053010;28;20063;-81
2021/11/09 00:44:58;;;;;;;32.10;9.63;;;5.40;93.90;;;;;;5053952;28;20044;-81
2021/11/09 00:47:24;;;;;;;24.90;8.25;;;5.40;93.90;;;;;;5052841;28;20025;-80
2021/11/09 00:49:50;;;;;;;25.60;8.80;;;5.40;93.90;;;;;;5053832;28;20029;-80
2021/11/09 00:52:16;;;;;;;30.65;9.75;;;5.30;94.20;;;;;;5053283;28;20021;-80
2021/11/09 00:54:43;;;;;;;27.27;8.75;;;5.30;93.90;;;;;;5053195;28;20559;-80
2021/11/09 00:57:08;;;;;;;26.10;9.13;;;5.30;93.90;;;;;;5052174;28;20367;-81
2021/11/09 00:59:34;;;;;;;29.08;9.05;;;5.30;93.90;;;;;;5041707;28;20486;-80
2021/11/09 01:02:00;;;;;;;24.67;9.27;;;5.30;94.20;;;;;;5030206;28;20148;-80
2021/11/09 01:04:27;;;;;;;26.65;9.77;;;5.30;93.90;;;;;;5038775;28;20073;-81
2021/11/09 01:06:55;;;;;;;30.92;9.23;;;5.20;93.90;;;;;;5041964;28;20032;-80
2021/11/09 01:09:22;;;;;;;31.85;9.30;;;5.20;93.90;;;;;;5035432;28;20022;-81
2021/11/09 01:11:49;;;;;;;34.40;10.38;;;5.30;94.00;;;;;;5048465;28;20036;-81
2021/11/09 01:14:15;;;;;;;29.27;8.52;;;5.20;94.00;;;;;;5015881;28;20083;-81
2021/11/09 01:16:42;;;;;;;34.53;10.40;;;5.30;94.10;;;;;;5050903;28;20493;-81
2021/11/09 01:19:08;;;;;;;24.20;9.15;;;5.30;94.10;;;;;;5047447;28;20028;-81
2021/11/09 01:21:35;;;;;;;29.08;9.38;;;5.30;94.10;;;;;;5049190;28;20017;-81
2021/11/09 01:24:02;;;;;;;25.20;8.35;;;5.30;94.10;;;;;;5048898;28;20040;-80
2021/11/09 01:26:28;;;;;;;22.67;8.20;;;5.30;94.10;;;;;;5032419;28;20041;-81
2021/11/09 01:28:57;;;;;;;28.55;8.40;;;5.30;94.10;;;;;;5053300;28;20044;-81
2021/11/09 01:31:24;;;;;;;30.08;9.00;;;5.30;94.10;;;;;;5052216;28;20068;-81
2021/11/09 01:33:51;;;;;;;27.63;8.30;;;5.20;94.10;;;;;;5050181;28;20017;-81
2021/11/09 01:36:17;;;;;;;25.38;9.52;;;5.20;94.10;;;;;;5049071;28;20025;-80
2021/11/09 01:38:43;;;;;;;22.90;8.38;;;5.20;94.20;;;;;;5047673;28;20104;-80
2021/11/09 01:41:09;;;;;;;27.83;8.68;;;5.20;94.20;;;;;;5049991;28;20032;-80
2021/11/09 01:43:36;;;;;;;29.27;8.35;;;5.20;94.10;;;;;;5051758;28;20032;-80
2021/11/09 01:46:03;;;;;;;34.13;9.07;;;5.20;94.20;;;;;;5048742;28;20025;-80
2021/11/09 01:48:29;;;;;;;28.25;9.38;;;5.20;94.20;;;;;;5034690;28;20029;-80
2021/11/09 01:50:59;;;;;;;22.98;8.15;;;5.20;94.20;;;;;;5052991;28;20039;-80
2021/11/09 01:53:27;;;;;;;23.77;8.30;;;5.10;94.20;;;;;;5051765;28;20068;-80
2021/11/09 01:55:54;;;;;;;32.40;9.02;;;5.10;94.50;;;;;;5051687;28;20057;-81
2021/11/09 01:58:20;;;;;;;26.95;9.40;;;5.10;94.20;;;;;;5052426;28;20440;-80
2021/11/09 02:00:58;;;;;;;26.88;8.05;;;5.10;94.20;;;;;;5052300;28;20108;-81
2021/11/09 02:03:25;;;;;;;29.17;8.90;;;5.10;94.50;;;;;;5052212;28;20052;-79
2021/11/09 02:05:52;;;;;;;26.27;8.43;;;5.10;94.20;;;;;;5052724;28;20021;-80
2021/11/09 02:08:18;;;;;;;21.83;8.05;;;5.00;94.50;;;;;;5034725;28;20095;-80
2021/11/09 02:10:47;;;;;;;24.70;9.07;;;5.00;94.20;;;;;;5051275;28;20033;-81
2021/11/09 02:13:13;;;;;;;23.48;8.52;;;5.00;94.20;;;;;;5052762;28;20473;-81
2021/11/09 02:15:40;;;;;;;24.60;7.88;;;5.00;94.20;;;;;;5052833;28;20036;-80
2021/11/09 02:18:08;;;;;;;25.73;8.75;;;5.00;94.20;;;;;;5052893;28;20032;-81
2021/11/09 02:20:34;;;;;;;22.23;9.23;;;5.00;94.20;;;;;;5051423;28;20029;-80
2021/11/09 02:23:01;;;;;;;25.77;8.73;;;4.90;94.10;;;;;;5051594;28;20124;-80
2021/11/09 02:25:30;;;;;;;22.08;8.38;;;4.90;94.10;;;;;;5034841;28;20048;-80
2021/11/09 02:27:56;;;;;;;23.40;9.05;;;4.90;94.20;;;;;;5052535;28;20470;-81
2021/11/09 02:30:24;;;;;;;22.00;8.68;;;4.90;94.10;;;;;;5044882;28;20393;-80
2021/11/09 02:32:51;;;;;;;23.17;8.30;;;4.90;94.10;;;;;;5051215;28;20021;-80
2021/11/09 02:35:17;;;;;;;28.85;9.20;;;4.90;94.20;;;;;;5051493;28;20029;-81
2021/11/09 02:37:44;;;;;;;21.63;9.45;;;4.90;94.20;;;;;;5052482;28;20032;-80
2021/11/09 02:40:11;;;;;;;29.52;9.25;;;4.90;94.40;;;;;;5052185;28;20738;-80
2021/11/09 02:42:41;;;;;;;35.72;8.73;;;4.90;94.10;;;;;;5050979;28;20021;-80
2021/11/09 02:45:17;;;;;;;29.25;9.15;;;4.80;94.10;;;;;;5052591;28;20096;-80
2021/11/09 02:47:51;;;;;;;28.75;8.93;;;4.80;94.10;;;;;;5051902;28;20499;-80
2021/11/09 02:50:20;;;;;;;30.80;9.38;;;4.80;94.10;;;;;;5050784;28;20036;-80
2021/11/09 02:52:56;;;;;;;30.20;8.43;;;4.80;94.20;;;;;;5050673;28;20033;-81
2021/11/09 02:55:29;;;;;;;24.67;9.73;;;4.80;94.20;;;;;;5039707;28;20028;-80
2021/11/09 02:58:04;;;;;;;24.60;8.95;;;4.80;94.20;;;;;;5051743;28;20018;-80
2021/11/09 03:00:34;;;;;;;27.42;10.18;;;4.80;94.20;;;;;;5031933;28;20041;-81
2021/11/09 03:03:06;;;;;;;29.25;9.77;;;4.80;94.20;;;;;;5032094;28;20501;-81
2021/11/09 03:05:59;;;;;;;33.45;9.73;;;4.70;94.20;;;;;;5038658;28;20080;-80
2021/11/09 03:08:37;;;;;;;26.90;8.93;;;4.70;94.20;;;;;;5037741;28;20028;-81
2021/11/09 03:11:04;;;;;;;22.02;8.95;;;4.70;94.20;;;;;;5032301;28;20021;-81
2021/11/09 03:13:30;;;;;;;20.00;9.18;;;4.70;94.20;;;;;;5044288;28;20430;-81
2021/11/09 03:16:01;;;;;;;34.10;9.68;;;4.70;94.20;;;;;;5050561;28;20055;-81
2021/11/09 03:18:28;;;;;;;25.08;9.15;;;4.70;94.20;;;;;;5052066;28;20509;-81
2021/11/09 03:45:26;;;;;;;28.45;9.82;;;4.60;94.10;;;;;;5051704;28;20079;-80
2021/11/09 03:47:55;;;;;;;29.75;10.07;;;4.50;94.10;;;;;;5051806;28;20021;-81
2021/11/09 03:50:24;;;;;;;28.85;9.73;;;4.50;94.10;;;;;;5052099;28;20018;-81
2021/11/09 03:53:13;;;;;;;31.52;9.65;;;4.50;94.10;;;;;;5033857;28;20041;-80
2021/11/09 03:56:01;;;;;;;;;;;4.50;94.10;;;;;;5050802;28;20112;-80
2021/11/09 04:01:08;;;;;;;25.58;10.02;;;4.50;94.20;;;;;;5053989;28;20350;-81
2021/11/09 04:06:21;;;;;;;23.90;8.95;;;4.50;94.20;;;;;;5052950;28;20033;-80
2021/11/09 04:11:20;;;;;;;29.77;10.30;;;4.50;94.20;;;;;;5054921;28;20033;-80
2021/11/09 04:13:55;;;;;;;27.27;9.20;;;4.50;94.20;;;;;;5053665;28;20470;-81
2021/11/09 04:19:18;;;;;;;23.00;9.68;;;4.50;94.20;;;;;;5052983;28;20029;-81
2021/11/09 05:01:49;;;;;;;27.35;9.80;;;4.50;94.70;;;;;;5054028;28;20036;-80
2021/11/09 05:10:09;;;;;;;32.33;8.90;;;4.50;94.50;;;;;;5052757;28;20095;-80
2021/11/09 05:12:31;;;;;;;25.95;9.57;;;4.50;94.50;;;;;;5053151;28;20090;-80
2021/11/09 05:14:56;;;;;;;30.42;9.45;;;4.50;94.80;;;;;;5052217;28;20021;-80
2021/11/09 05:17:22;;;;;;;31.38;9.82;;;4.50;94.60;;;;;;5050740;28;20470;-81
2021/11/09 05:19:49;;;;;;;26.48;9.10;;;4.50;94.60;;;;;;5053558;28;20397;-80
2021/11/09 05:22:15;;;;;;;29.58;9.35;;;4.50;94.60;;;;;;5053692;28;20055;-80
2021/11/09 05:24:43;;;;;;;38.22;12.10;;;4.50;94.60;;;;;;5049198;28;20429;-80
2021/11/09 05:27:11;;;;;;;28.55;9.40;;;4.50;94.60;;;;;;5044168;28;20067;-80
2021/11/09 05:29:38;;;;;;;26.17;8.93;;;4.40;94.60;;;;;;5052117;28;20089;-80
2021/11/09 05:32:04;;;;;;;28.63;10.00;;;4.40;94.60;;;;;;5052006;28;20129;-80
2021/11/09 05:34:30;;;;;;;30.48;10.98;;;4.40;94.60;;;;;;5052063;28;21839;-80
2021/11/09 05:36:58;;;;;;;34.40;10.88;;;4.40;94.60;;;;;;5052450;28;20029;-80
2021/11/09 05:39:37;;;;;;;30.73;11.82;;;4.40;94.70;;;;;;5052019;28;20040;-80
2021/11/09 05:42:03;;;;;;;30.52;10.65;;;4.40;94.70;;;;;;5036955;28;20048;-80
2021/11/09 05:44:29;;;;;;;28.65;10.65;;;4.40;94.70;;;;;;5052948;28;20129;-80
2021/11/09 05:46:55;;;;;;;34.40;12.32;;;4.30;94.60;;;;;;5053392;28;20091;-81
2021/11/09 05:49:21;;;;;;;28.38;11.43;;;4.30;94.60;;;;;;5051969;28;20037;-80
2021/11/09 05:51:47;;;;;;;37.15;10.65;;;4.30;94.60;;;;;;5050273;28;20039;-80
2021/11/09 05:54:13;;;;;;;31.00;11.32;;;4.30;94.60;;;;;;5047111;28;20029;-81
2021/11/09 05:56:39;;;;;;;29.98;11.45;;;4.30;94.60;;;;;;5048959;28;20078;-80
2021/11/09 05:59:04;;;;;;;38.40;12.73;;;4.30;94.70;;;;;;5036466;28;20417;-80
2021/11/09 06:01:30;;;;;;;27.17;11.00;;;4.20;94.60;;;;;;5052540;28;20090;-80
2021/11/09 06:03:56;;;;;;;31.33;11.88;;;4.20;94.60;;;;;;5053430;28;20040;-80
2021/11/09 06:06:22;;;;;;;33.97;11.88;;;4.20;94.60;;;;;;5052116;28;20430;-80
2021/11/09 06:08:49;;;;;;;36.45;12.35;;;4.20;94.60;;;;;;5052870;28;20471;-80
2021/11/09 06:11:16;;;;;;;32.17;11.90;;;4.20;94.60;;;;;;5052961;28;20031;-80
2021/11/09 06:13:42;;;;;;;36.15;12.60;;;4.20;94.60;;;;;;5052916;28;20057;-80
2021/11/09 06:16:08;;;;;;;33.92;11.02;;;4.20;94.60;;;;;;5046916;28;20065;-80
2021/11/09 06:18:34;;;;;;;36.45;12.68;;;4.20;94.60;;;;;;5050951;28;20028;-80
2021/11/09 06:21:00;;;;;;;37.58;12.10;;;4.20;94.60;;;;;;5051449;28;20021;-80
2021/11/09 06:23:25;;;;;;;25.88;11.23;;;4.20;94.60;;;;;;5053414;28;20390;-80
2021/11/09 06:25:51;;;;;;;35.20;13.63;;;4.20;94.60;;;;;;5050774;28;20055;-80
2021/11/09 06:28:19;;;;;;;40.78;12.68;;;4.10;94.60;;;;;;5014887;28;20083;-80
2021/11/09 06:30:46;;;;;;;42.07;12.13;;;4.20;94.60;;;;;;5050486;28;20128;-80
2021/11/09 06:33:13;;;;;;;36.42;11.93;;;4.10;94.60;;;;;;5050828;28;20033;-80
2021/11/09 06:35:39;;;;;;;24.90;9.82;;;4.10;94.60;;;;;;5052020;28;20037;-80
2021/11/09 06:38:04;;;;;;;26.92;10.35;;;4.10;94.60;;;;;;5051029;28;20032;-80
2021/11/09 06:40:30;;;;;;;23.70;9.65;;;4.10;94.50;;;;;;5050887;28;20557;-80
2021/11/09 06:42:56;;;;;;;28.58;10.55;;;4.10;94.60;;;;;;5051087;28;20166;-80
2021/11/09 06:45:22;;;;;;;33.03;12.10;;;4.10;94.60;;;;;;5052469;28;20104;-81
2021/11/09 06:47:51;;;;;;;33.97;11.88;;;4.10;94.60;;;;;;5052392;28;20053;-80
2021/11/09 06:50:17;;;;;;;37.80;10.98;;;4.10;94.60;;;;;;5052209;28;20541;-81
2021/11/09 06:52:42;;;;;;;26.63;10.05;;;4.10;94.60;;;;;;5050816;28;20017;-80
2021/11/09 06:55:09;;;;;;;43.45;10.27;;;4.10;94.70;;;;;;5050983;28;20037;-80
2021/11/09 06:57:34;;;;;;;29.05;10.60;;;4.10;94.70;;;;;;5051206;28;20171;-81
2021/11/09 07:00:00;;;;;;;29.48;10.40;;;4.10;94.70;;;;;;5052254;28;20111;-80
2021/11/09 07:02:30;;;;;;;27.58;9.38;;;4.10;94.70;;;;;;5051812;28;20040;-80
2021/11/09 07:04:56;;;;;;;25.40;9.35;;;4.10;94.70;;;;;;5052373;28;20014;-80
2021/11/09 07:07:22;;;;;;;30.05;10.63;;;4.10;94.70;;;;;;5052091;28;20043;-80
2021/11/09 07:09:47;;;;;;;26.30;9.18;;;4.10;94.70;;;;;;5036852;28;20033;-80
2021/11/09 07:12:13;;;;;;;25.10;9.80;;;4.10;94.70;;;;;;5034372;28;20056;-80
2021/11/09 07:14:38;;;;;;;31.13;10.82;;;4.10;94.70;;;;;;5051001;28;20501;-80
2021/11/09 07:17:04;;;;;;;24.60;9.70;;;4.10;94.70;;;;;;5034255;28;20845;-80
2021/11/09 07:19:31;;;;;;;27.92;9.95;;;4.10;94.70;;;;;;5051652;28;20037;-80
2021/11/09 07:21:57;;;;;;;30.88;9.98;;;4.10;94.70;;;;;;5051742;28;20032;-80
2021/11/09 07:24:23;;;;;;;25.77;9.63;;;4.10;94.70;;;;;;5034193;28;20025;-80
2021/11/09 07:26:49;;;;;;;35.08;9.95;;;4.20;94.70;;;;;;5050951;28;20732;-80
2021/11/09 07:29:14;;;;;;;34.38;11.32;;;4.20;94.70;;;;;;5047712;28;20091;-81
2021/11/09 07:31:40;;;;;;;25.83;9.25;;;4.20;94.70;;;;;;5047162;28;20053;-80
2021/11/09 07:34:06;;;;;;;27.55;9.48;;;4.30;94.80;;;;;;5050948;28;20695;-80
2021/11/09 07:36:32;;;;;;;30.25;9.43;;;4.30;94.80;;;;;;5050910;28;20481;-80
2021/11/09 07:38:58;;;;;;;29.52;9.85;;;4.30;94.80;;;;;;5053406;28;20051;-80
2021/11/09 07:41:24;;;;;;;31.10;9.48;;;4.40;94.80;;;;;;5053596;28;20056;-80
2021/11/09 07:43:50;;;;;;;31.85;10.30;;;4.40;94.80;;;;;;5055174;28;20389;-81
2021/11/09 07:46:16;;;;;;;28.60;9.82;;;4.40;94.80;;;;;;5054313;28;20041;-81
2021/11/09 07:48:42;;;;;;;26.40;10.35;;;4.50;94.90;;;;;;5054267;28;20036;-80
2021/11/09 07:51:08;;;;;;;27.45;8.05;;;4.50;94.90;;;;;;5037338;28;20032;-81
2021/11/09 07:53:35;;;;;;;27.88;9.07;;;4.60;94.90;;;;;;5053628;28;20033;-81
2021/11/09 07:56:13;;;;;;;29.75;10.18;;;4.60;94.90;;;;;;5037026;28;20032;-81
2021/11/09 08:01:34;;;;;;;32.65;10.63;;;4.70;94.80;;;;;;5040133;28;20095;-81
2021/11/09 08:04:05;;;;;;;27.23;10.38;;;4.80;94.80;;;;;;5046481;28;20056;-81
2021/11/09 08:06:43;;;;;;;40.67;10.93;;;4.90;94.90;;;;;;5043078;28;21891;-81
2021/11/09 08:09:18;;;;;;;35.37;11.03;;;5.00;94.90;;;;;;5043587;28;20022;-81
2021/11/09 08:11:44;;;;;;;34.22;9.63;;;5.10;94.80;;;;;;5053383;28;20083;-81
2021/11/09 08:14:11;;;;;;;42.08;10.88;;;5.20;94.80;;;;;;5041833;28;20381;-81
2021/11/09 08:16:37;;;;;;;43.28;11.13;;;5.30;94.80;;;;;;5053521;28;20735;-81
2021/11/09 08:19:04;;;;;;;31.67;10.95;;;5.40;94.80;;;;;;5054725;28;20017;-81
2021/11/09 08:21:32;;;;;;;35.72;10.65;;;5.40;94.80;;;;;;5054592;28;20493;-81
2021/11/09 08:23:57;;;;;;;27.20;10.02;;;5.50;94.80;;;;;;5054868;28;20033;-81
2021/11/09 08:26:24;;;;;;;30.08;10.68;;;5.60;94.80;;;;;;5054098;28;20036;-81
2021/11/09 08:28:53;;;;;;;38.40;10.52;;;5.70;94.70;;;;;;5050331;28;20491;-81
2021/11/09 08:31:21;;;;;;;29.67;11.23;;;5.80;94.70;;;;;;5054189;28;20513;-81
2021/11/09 08:33:48;;;;;;;47.65;11.52;;;5.90;94.70;;;;;;5054625;28;20194;-81
2021/11/09 08:36:16;;;;;;;28.85;9.73;;;5.90;94.70;;;;;;5052658;28;20021;-81
2021/11/09 08:38:42;;;;;;;34.88;10.63;;;6.00;94.60;;;;;;5050640;28;20385;-82
2021/11/09 08:41:12;;;;;;;30.55;10.35;;;6.10;94.60;;;;;;5052060;28;20577;-81
2021/11/09 08:43:40;;;;;;;33.20;10.07;;;6.20;94.60;;;;;;5051831;28;22475;-82
2021/11/09 08:48:43;;;;;;;33.45;10.38;;;6.30;94.50;;;;;;5053112;28;20043;-82
2021/11/09 08:51:11;;;;;;;36.80;9.93;;;6.40;94.40;;;;;;5054416;28;20033;-81
2021/11/09 08:53:44;;;;;;;29.27;10.18;;;6.50;94.30;;;;;;5052933;28;20033;-81
2021/11/09 09:04:18;;;;;;;26.95;9.40;;;6.80;94.20;;;;;;5054720;28;20044;-81
2021/11/09 09:06:47;;;;;;;34.03;8.85;;;6.90;94.10;;;;;;5053276;28;20031;-81
2021/11/09 09:09:14;;;;;;;31.70;9.10;;;7.00;94.10;;;;;;5054551;28;20106;-81
2021/11/09 09:11:40;;;;;;;28.45;9.27;;;7.10;94.10;;;;;;5053350;28;20424;-81
2021/11/09 09:14:05;;;;;;;29.35;10.20;;;7.10;94.00;;;;;;5053500;28;20029;-81
2021/11/09 09:16:34;;;;;;;31.15;9.27;;;7.20;94.00;;;;;;5036659;28;20111;-81
2021/11/09 09:19:01;;;;;;;35.80;9.13;;;7.30;94.00;;;;;;5053148;28;20040;-81
2021/11/09 09:21:41;;;;;;;23.98;8.32;;;7.40;94.00;;;;;;5052956;28;20025;-81
2021/11/09 09:27:17;;;;;;;26.95;9.25;;;7.60;93.90;;;;;;5053140;28;20035;-80
2021/11/09 09:29:52;;;;;;;32.42;8.32;;;7.60;93.90;;;;;;5052689;28;20025;-81
2021/11/09 09:55:16;;;;;;;37.90;9.65;;;8.20;93.60;;;;;;5053873;28;20124;-81
2021/11/09 09:57:04;;;;;;;26.33;9.75;;;8.20;93.50;;;;;;5044270;28;20512;-81
2021/11/09 09:59:32;;;;;;;24.45;10.20;;;8.30;93.40;;;;;;5052304;28;20033;-81
2021/11/09 10:02:13;;;;;;;30.02;10.18;;;8.40;93.40;;;;;;5052360;28;20029;-81
2021/11/09 10:04:45;;;;;;;28.02;9.35;;;8.40;93.30;;;;;;5052163;28;20390;-81
2021/11/09 10:07:13;;;;;;;31.67;10.23;;;8.50;93.20;;;;;;5051937;28;20124;-81
2021/11/09 10:09:44;;;;;;;30.60;9.18;;;8.60;93.10;;;;;;5035738;28;20033;-81
2021/11/09 10:12:21;;;;;;;33.35;10.18;;;8.60;93.00;;;;;;5053220;28;20094;-81
2021/11/09 10:14:53;;;;;;;24.75;9.20;;;8.70;93.00;;;;;;5052846;28;20095;-80
2021/11/09 10:17:23;;;;;;;31.90;9.40;;;8.70;93.00;;;;;;5053054;28;20104;-81
2021/11/09 10:19:48;;;;;;;27.45;9.00;;;8.80;93.00;;;;;;5053356;28;20020;-81
2021/11/09 10:22:22;;;;;;;31.27;9.00;;;8.90;92.90;;;;;;5051757;28;20028;-81
2021/11/09 10:24:59;;;;;;;33.03;9.23;;;9.00;92.80;;;;;;5053154;28;20040;-81
2021/11/09 10:27:27;;;;;;;33.35;9.30;;;9.00;92.40;;;;;;5031915;28;20120;-81
2021/11/09 10:29:55;;;;;;;23.98;8.27;;;9.10;92.40;;;;;;5032011;28;20148;-80
2021/11/09 10:32:24;;;;;;;23.85;8.57;;;9.20;92.40;;;;;;5029244;28;20515;-80
2021/11/09 10:34:51;;;;;;;25.63;7.93;;;9.20;92.30;;;;;;5030618;28;20042;-80
2021/11/09 10:37:20;;;;;;;27.13;8.40;;;9.30;92.30;;;;;;5030138;28;20066;-81
2021/11/09 10:39:48;;;;;;;26.10;7.88;;;9.40;92.30;;;;;;5035294;28;20012;-81
2021/11/09 10:42:15;;;;;;;26.10;7.32;;;9.50;92.20;;;;;;5031046;28;20033;-80
2021/11/09 10:44:42;;;;;;;22.83;7.13;;;9.50;92.00;;;;;;5031163;28;20025;-80
2021/11/09 10:47:41;;;;;;;29.25;8.07;;;9.60;91.90;;;;;;5015450;28;20033;-80
2021/11/09 10:50:24;;;;;;;;;;;9.70;91.70;;;;;;5000327;28;20503;-80
2021/11/09 10:53:02;;;;;;;24.48;6.80;;;9.80;91.50;;;;;;5031660;28;20274;-80
2021/11/09 11:06:28;;;;;;;23.20;7.30;;;10.10;90.80;;;;;;5052585;28;20033;-81
2021/11/09 11:09:18;;;;;;;22.60;6.00;;;10.30;90.60;;;;;;5055645;28;20021;-81
2021/11/09 11:11:52;;;;;;;23.77;7.18;;;10.30;90.40;;;;;;5054266;28;20033;-81
2021/11/09 11:14:23;;;;;;;25.77;6.35;;;10.40;90.20;;;;;;5056841;28;20029;-81
2021/11/09 11:16:59;;;;;;;25.00;5.25;;;10.50;90.20;;;;;;5056892;28;20108;-81
2021/11/09 11:19:27;;;;;;;24.27;6.00;;;10.50;90.20;;;;;;5056755;28;20028;-81
2021/11/09 11:21:54;;;;;;;28.38;6.00;;;10.50;89.80;;;;;;5036835;28;20026;-81
2021/11/09 11:24:21;;;;;;;26.48;6.22;;;10.60;89.70;;;;;;5036698;28;20390;-81
2021/11/09 11:26:49;;;;;;;24.95;5.28;;;10.80;88.90;;;;;;5034834;28;20037;-81
2021/11/09 11:29:21;;;;;;;18.20;4.47;;;11.00;87.80;;;;;;5034644;28;20029;-81
2021/11/09 11:31:47;;;;;;;23.85;4.68;;;11.20;86.70;;;;;;5035473;28;20052;-81
2021/11/09 11:34:17;;;;;;;23.65;5.32;;;11.40;85.30;;;;;;5054257;28;20108;-81
2021/11/09 11:36:44;;;;;;;21.55;5.32;;;11.70;84.10;;;;;;5055459;28;20477;-80
2021/11/09 11:39:11;;;;;;;17.95;4.85;;;11.90;82.80;;;;;;5055613;28;20105;-81
2021/11/09 11:41:40;;;;;;;22.60;4.88;;;12.00;82.30;;;;;;5048679;28;20067;-80
2021/11/09 11:44:08;;;;;;;24.90;4.43;;;12.30;82.60;;;;;;5055986;28;20470;-81
2021/11/09 11:46:34;;;;;;;21.85;4.70;;;12.30;79.60;;;;;;5055909;28;20025;-81
2021/11/09 11:49:20;;;;;;;17.52;4.07;;;12.30;80.80;;;;;;5055861;28;20032;-81
2021/11/09 11:51:46;;;;;;;21.67;4.65;;;12.30;81.40;;;;;;5055812;28;20108;-81
2021/11/09 11:54:15;;;;;;;18.83;4.07;;;12.40;80.30;;;;;;5055504;28;20538;-80
2021/11/09 11:56:48;;;;;;;25.80;4.78;;;12.60;80.80;;;;;;5053017;28;20040;-81
2021/11/09 11:59:20;;;;;;;19.63;4.43;;;12.70;78.90;;;;;;5035714;28;20402;-81
2021/11/09 12:01:46;;;;;;;21.85;4.40;;;12.60;79.30;;;;;;5042354;28;20094;-82
2021/11/09 12:04:37;;;;;;;19.33;4.32;;;12.60;78.10;;;;;;5038082;28;20436;-82
2021/11/09 12:07:04;;;;;;;21.05;4.30;;;12.50;78.50;;;;;;5055206;28;20067;-82
2021/11/09 12:09:39;;;;;;;18.70;3.92;;;12.40;78.20;;;;;;5060465;28;20112;-82
2021/11/09 12:12:17;;;;;;;18.38;4.22;;;12.40;79.40;;;;;;5075626;28;20107;-82
2021/11/09 12:14:57;;;;;;;19.88;4.32;;;12.30;77.90;;;;;;5035458;28;20471;-81
2021/11/09 12:17:40;;;;;;;15.60;3.50;;;12.30;78.50;;;;;;5053153;28;20082;-81
2021/11/09 12:20:07;;;;;;;19.17;3.45;;;12.30;78.50;;;;;;5053225;28;20025;-82
2021/11/09 12:22:45;;;;;;;11.75;3.55;;;12.30;78.90;;;;;;5056858;28;20028;-82
2021/11/09 12:25:33;;;;;;;20.00;2.90;;;12.30;79.30;;;;;;5065946;28;20071;-81
2021/11/09 12:28:05;;;;;;;14.40;3.38;;;12.40;79.20;;;;;;5043093;28;20034;-82
2021/11/09 12:30:37;;;;;;;21.42;3.95;;;12.30;79.00;;;;;;5071491;28;20044;-81
2021/11/09 12:33:10;;;;;;;14.38;2.97;;;12.30;78.20;;;;;;5073134;28;20023;-82
2021/11/09 12:35:36;;;;;;;20.02;3.83;;;12.50;78.10;;;;;;5058389;28;20021;-82
2021/11/09 12:38:01;;;;;;;14.43;2.90;;;12.70;77.30;;;;;;5073831;28;20020;-82
2021/11/09 12:40:50;;;;;;;22.08;3.33;;;12.80;76.50;;;;;;5074115;28;20556;-81
2021/11/09 12:43:22;;;;;;;16.50;3.50;;;12.90;76.00;;;;;;5053142;28;20031;-81
2021/11/09 12:45:59;;;;;;;19.65;3.08;;;13.10;74.40;;;;;;5054657;28;20036;-82
2021/11/09 12:48:28;;;;;;;11.57;2.67;;;13.30;74.10;;;;;;5053681;28;20144;-82
2021/11/09 12:51:19;;;;;;;20.10;3.70;;;13.30;72.90;;;;;;5055104;28;20426;-82
2021/11/09 12:53:46;;;;;;;14.55;2.72;;;13.30;73.60;;;;;;5053226;28;20095;-82
2021/11/09 12:56:33;;;;;;;19.25;3.47;;;13.00;75.00;;;;;;5039881;28;20033;-82
2021/11/09 12:59:06;;;;;;;20.77;4.28;;;13.00;75.20;;;;;;5032831;28;20029;-82
2021/11/09 13:04:26;;;;;;;15.35;3.42;;;13.10;74.60;;;;;;5051515;28;20033;-81
2021/11/09 13:09:54;;;;;;;17.02;3.33;;;13.10;73.80;;;;;;5043811;28;20018;-81
2021/11/09 13:12:21;;;;;;;17.15;3.10;;;13.20;74.00;;;;;;5052796;28;20041;-81
2021/11/09 13:14:55;;;;;;;18.23;3.80;;;13.40;72.90;;;;;;5054470;28;20102;-81
2021/11/09 13:17:24;;;;;;;16.58;3.10;;;13.70;71.80;;;;;;5045170;28;20052;-81
2021/11/09 13:23:05;;;;;;;16.48;3.35;;;13.50;72.70;;;;;;5051080;28;20029;-81
2021/11/09 13:25:43;;;;;;;18.40;3.35;;;13.20;73.70;;;;;;5052554;28;20033;-81
2021/11/09 13:28:12;;;;;;;14.88;3.53;;;13.10;74.70;;;;;;5054030;28;20354;-81
2021/11/09 13:30:38;;;;;;;16.90;3.63;;;13.20;74.20;;;;;;5053302;28;20536;-81
2021/11/09 13:33:04;;;;;;;12.07;3.17;;;13.30;74.00;;;;;;5052051;28;20749;-81
2021/11/09 13:35:34;;;;;;;15.27;3.25;;;13.40;73.20;;;;;;5053681;28;20020;-81
2021/11/09 13:38:20;;;;;;;11.98;3.40;;;13.50;72.70;;;;;;5052252;28;20068;-81
2021/11/09 13:40:55;;;;;;;17.95;3.47;;;13.70;72.00;;;;;;5053428;28;20075;-81
2021/11/09 13:43:25;;;;;;;20.17;3.30;;;14.10;70.60;;;;;;5054029;28;20025;-81
2021/11/09 13:45:59;;;;;;;15.50;3.67;;;14.20;69.70;;;;;;5052210;28;20394;-81
2021/11/09 13:48:26;;;;;;;14.73;2.90;;;14.10;69.70;;;;;;5053598;28;20055;-81
2021/11/09 13:50:55;;;;;;;15.35;3.42;;;14.00;70.50;;;;;;5052431;28;20029;-81
2021/11/09 13:53:26;;;;;;;14.90;3.13;;;13.70;71.20;;;;;;5053706;28;20036;-80
2021/11/09 13:55:53;;;;;;;15.27;3.15;;;13.50;71.00;;;;;;5053344;28;20033;-80
2021/11/09 13:58:19;;;;;;;16.40;3.28;;;13.40;72.10;;;;;;5052253;28;20036;-80
2021/11/09 14:00:51;;;;;;;13.70;2.92;;;13.30;72.40;;;;;;5052454;28;20045;-80
2021/11/09 14:14:24;;;;;;;17.13;2.75;;;12.40;75.80;;;;;;5053326;28;20107;-81
2021/11/09 14:16:51;;;;;;;14.85;3.38;;;12.30;76.50;;;;;;5051950;28;20029;-81
2021/11/09 14:19:36;;;;;;;16.02;2.85;;;12.10;77.20;;;;;;5052131;28;20044;-81
2021/11/09 14:22:12;;;;;;;14.00;2.67;;;11.90;77.70;;;;;;5053086;28;20012;-81
2021/11/09 14:24:39;;;;;;;16.95;2.83;;;11.80;78.40;;;;;;5051789;28;20025;-81
2021/11/09 14:27:05;;;;;;;13.70;2.83;;;11.70;79.00;;;;;;5051484;28;20033;-81
2021/11/09 14:29:35;;;;;;;16.85;2.83;;;11.60;79.10;;;;;;5050554;28;20028;-80
2021/11/09 14:32:07;;;;;;;12.88;2.97;;;11.50;79.40;;;;;;5049990;28;20052;-81
2021/11/09 14:34:34;;;;;;;16.52;2.78;;;11.40;79.60;;;;;;5050657;28;20110;-81
2021/11/09 14:37:15;;;;;;;13.10;3.03;;;11.40;80.00;;;;;;5051450;28;20040;-81
2021/11/09 14:39:45;;;;;;;17.13;2.92;;;11.30;80.30;;;;;;5033641;28;20487;-81
2021/11/09 14:42:35;;;;;;;9.95;2.83;;;11.20;80.50;;;;;;5033946;28;20029;-81
2021/11/09 14:47:39;;;;;;;12.48;3.58;;;11.10;81.20;;;;;;5052868;28;20025;-81
2021/11/09 14:50:12;;;;;;;19.73;3.13;;;11.10;81.40;;;;;;5052873;28;20074;-81
2021/11/09 14:52:40;;;;;;;13.45;3.05;;;11.00;81.40;;;;;;5052495;28;20025;-81
2021/11/09 14:55:40;;;;;;;14.15;3.28;;;11.00;81.50;;;;;;5052336;28;20028;-81
2021/11/09 14:58:23;;;;;;;16.13;3.35;;;11.00;81.80;;;;;;5051501;28;20047;-80
2021/11/09 15:00:50;;;;;;;13.82;2.88;;;10.90;82.30;;;;;;5052875;28;20028;-80
2021/11/09 15:03:16;;;;;;;18.42;3.47;;;10.90;82.50;;;;;;5052726;28;20025;-80
2021/11/09 15:05:42;;;;;;;16.30;3.60;;;10.90;82.50;;;;;;5052401;28;20040;-80
2021/11/09 15:08:46;;;;;;;14.40;3.15;;;10.80;82.60;;;;;;5052707;28;20025;-79
2021/11/09 15:11:21;;;;;;;21.83;3.85;;;10.80;82.80;;;;;;5032272;28;20084;-80
2021/11/09 15:27:28;;;;;;;11.38;3.20;;;10.50;84.30;;;;;;5052556;28;20083;-79
2021/11/09 15:30:02;;;;;;;13.02;3.28;;;10.50;84.80;;;;;;5042502;28;20032;-80
2021/11/09 15:32:31;;;;;;;16.20;3.40;;;10.40;85.10;;;;;;5052431;28;20033;-80
2021/11/09 15:35:09;;;;;;;13.00;3.60;;;10.30;85.40;;;;;;5047654;28;20590;-80
2021/11/09 15:40:21;;;;;;;13.07;3.28;;;10.30;85.70;;;;;;5032231;28;20029;-80
2021/11/09 15:42:47;;;;;;;;;;;10.20;85.90;;;;;;5032860;28;20022;-80
2021/11/09 15:45:13;;;;;;;16.67;3.63;;;10.20;86.00;;;;;;5052069;28;19911;-80